sensor_id;sensor_type;location;lat;lon;timestamp;pressure;altitude;pressure_sealevel;temperature;humidity
9525;BME280;15940;48.734;9.112;2023-04-02T00:02:31;95771.34;;;6.03;83.81
9525;BME280;15940;48.734;9.112;2023-04-02T00:05:28;95779.66;;;6.05;84.20
9525;BME280;15940;48.734;9.112;2023-04-02T00:08:01;95784.13;;;6.13;85.12
9525;BME280;15940;48.734;9.112;2023-04-02T00:10:32;95776.31;;;6.10;83.54
9525;BME280;15940;48.734;9.112;2023-04-02T00:13:04;95776.50;;;6.06;83.64
9525;BME280;15940;48.734;9.112;2023-04-02T00:15:32;95785.91;;;6.16;83.94
9525;BME280;15940;48.734;9.112;2023-04-02T00:18:00;95786.41;;;6.20;84.17
9525;BME280;15940;48.734;9.112;2023-04-02T00:20:28;95786.03;;;6.33;84.31
9525;BME280;15940;48.734;9.112;2023-04-02T00:22:56;95794.09;;;6.33;84.32
9525;BME280;15940;48.734;9.112;2023-04-02T00:25:26;95793.56;;;6.29;83.48
9525;BME280;15940;48.734;9.112;2023-04-02T00:27:55;95787.97;;;6.33;83.99
9525;BME280;15940;48.734;9.112;2023-04-02T00:30:22;95790.41;;;6.30;83.71
9525;BME280;15940;48.734;9.112;2023-04-02T00:32:50;95796.53;;;6.31;83.31
9525;BME280;15940;48.734;9.112;2023-04-02T00:35:22;95799.00;;;6.35;83.09
9525;BME280;15940;48.734;9.112;2023-04-02T00:37:51;95799.75;;;6.35;83.10
9525;BME280;15940;48.734;9.112;2023-04-02T00:40:22;95804.13;;;6.33;82.95
9525;BME280;15940;48.734;9.112;2023-04-02T00:42:52;95810.31;;;6.44;82.93
9525;BME280;15940;48.734;9.112;2023-04-02T00:45:25;95802.72;;;6.43;82.79
9525;BME280;15940;48.734;9.112;2023-04-02T00:47:54;95807.91;;;6.46;83.68
9525;BME280;15940;48.734;9.112;2023-04-02T00:50:29;95809.88;;;6.46;83.22
9525;BME280;15940;48.734;9.112;2023-04-02T00:52:59;95808.41;;;6.45;83.19
9525;BME280;15940;48.734;9.112;2023-04-02T00:55:34;95806.44;;;6.45;83.41
9525;BME280;15940;48.734;9.112;2023-04-02T00:58:10;95806.69;;;6.47;83.88
9525;BME280;15940;48.734;9.112;2023-04-02T01:00:48;95804.56;;;6.57;82.95
9525;BME280;15940;48.734;9.112;2023-04-02T01:03:31;95798.94;;;6.55;83.20
9525;BME280;15940;48.734;9.112;2023-04-02T01:06:06;95804.09;;;6.58;82.61
9525;BME280;15940;48.734;9.112;2023-04-02T01:08:53;95805.06;;;6.55;82.25
9525;BME280;15940;48.734;9.112;2023-04-02T01:11:45;95811.91;;;6.56;82.36
9525;BME280;15940;48.734;9.112;2023-04-02T01:14:22;95808.50;;;6.62;82.68
9525;BME280;15940;48.734;9.112;2023-04-02T01:16:59;95809.03;;;6.66;82.03
9525;BME280;15940;48.734;9.112;2023-04-02T01:19:51;95813.94;;;6.67;82.81
9525;BME280;15940;48.734;9.112;2023-04-02T01:22:29;95817.38;;;6.68;82.94
9525;BME280;15940;48.734;9.112;2023-04-02T01:25:00;95818.34;;;6.70;82.19
9525;BME280;15940;48.734;9.112;2023-04-02T01:27:33;95814.44;;;6.71;82.25
9525;BME280;15940;48.734;9.112;2023-04-02T01:30:07;95818.84;;;6.69;81.33
9525;BME280;15940;48.734;9.112;2023-04-02T01:32:36;95819.81;;;6.71;82.27
9525;BME280;15940;48.734;9.112;2023-04-02T01:35:06;95819.31;;;6.67;82.15
9525;BME280;15940;48.734;9.112;2023-04-02T01:37:37;95821.53;;;6.69;81.90
9525;BME280;15940;48.734;9.112;2023-04-02T01:40:23;95830.13;;;6.73;82.01
9525;BME280;15940;48.734;9.112;2023-04-02T01:43:02;95818.16;;;6.74;81.77
9525;BME280;15940;48.734;9.112;2023-04-02T01:45:33;95829.91;;;6.76;81.99
9525;BME280;15940;48.734;9.112;2023-04-02T01:48:01;95826.22;;;6.74;81.45
9525;BME280;15940;48.734;9.112;2023-04-02T01:50:34;95824.75;;;6.73;82.00
9525;BME280;15940;48.734;9.112;2023-04-02T01:53:04;95829.91;;;6.76;81.18
9525;BME280;15940;48.734;9.112;2023-04-02T01:55:39;95828.44;;;6.75;82.55
9525;BME280;15940;48.734;9.112;2023-04-02T01:58:09;95836.72;;;6.72;81.61
9525;BME280;15940;48.734;9.112;2023-04-02T02:00:43;95831.63;;;6.74;81.97
9525;BME280;15940;48.734;9.112;2023-04-02T02:03:12;95834.56;;;6.76;81.28
9525;BME280;15940;48.734;9.112;2023-04-02T02:05:39;95841.16;;;6.75;81.24
9525;BME280;15940;48.734;9.112;2023-04-02T02:08:22;95839.69;;;6.74;81.39
9525;BME280;15940;48.734;9.112;2023-04-02T02:10:53;95843.84;;;6.75;81.01
9525;BME280;15940;48.734;9.112;2023-04-02T02:13:20;95838.25;;;6.78;82.11
9525;BME280;15940;48.734;9.112;2023-04-02T02:15:49;95846.31;;;6.78;82.11
9525;BME280;15940;48.734;9.112;2023-04-02T02:18:20;95850.97;;;6.78;82.79
9525;BME280;15940;48.734;9.112;2023-04-02T02:20:48;95845.81;;;6.74;82.28
9525;BME280;15940;48.734;9.112;2023-04-02T02:23:16;95856.09;;;6.76;81.44
9525;BME280;15940;48.734;9.112;2023-04-02T02:25:45;95851.19;;;6.74;82.17
9525;BME280;15940;48.734;9.112;2023-04-02T02:28:16;95849.72;;;6.73;81.87
9525;BME280;15940;48.734;9.112;2023-04-02T02:30:46;95854.88;;;6.77;82.27
9525;BME280;15940;48.734;9.112;2023-04-02T02:33:20;95860.72;;;6.75;82.35
9525;BME280;15940;48.734;9.112;2023-04-02T02:35:55;95863.41;;;6.75;82.32
9525;BME280;15940;48.734;9.112;2023-04-02T02:38:36;95860.47;;;6.73;82.53
9525;BME280;15940;48.734;9.112;2023-04-02T02:41:12;95861.00;;;6.77;82.39
9525;BME280;15940;48.734;9.112;2023-04-02T02:43:45;95861.66;;;6.72;82.16
9525;BME280;15940;48.734;9.112;2023-04-02T02:46:16;95870.28;;;6.76;82.40
9525;BME280;15940;48.734;9.112;2023-04-02T02:48:47;95871.25;;;6.73;82.30
9525;BME280;15940;48.734;9.112;2023-04-02T02:51:22;95871.91;;;6.68;82.23
9525;BME280;15940;48.734;9.112;2023-04-02T02:53:54;95875.13;;;6.72;83.06
9525;BME280;15940;48.734;9.112;2023-04-02T02:56:23;95881.03;;;6.76;82.37
9525;BME280;15940;48.734;9.112;2023-04-02T02:58:51;95879.81;;;6.77;83.16
9525;BME280;15940;48.734;9.112;2023-04-02T03:01:19;95882.03;;;6.79;82.62
9525;BME280;15940;48.734;9.112;2023-04-02T03:03:52;95883.97;;;6.73;82.77
9525;BME280;15940;48.734;9.112;2023-04-02T03:06:20;95886.19;;;6.80;83.06
9525;BME280;15940;48.734;9.112;2023-04-02T03:08:52;95884.25;;;6.80;82.66
9525;BME280;15940;48.734;9.112;2023-04-02T03:11:28;95884.97;;;6.75;82.62
9525;BME280;15940;48.734;9.112;2023-04-02T03:14:06;95891.56;;;6.74;82.98
9525;BME280;15940;48.734;9.112;2023-04-02T03:16:41;95892.78;;;6.73;82.90
9525;BME280;15940;48.734;9.112;2023-04-02T03:19:25;95897.69;;;6.80;83.61
9525;BME280;15940;48.734;9.112;2023-04-02T03:21:57;95897.94;;;6.77;82.80
9525;BME280;15940;48.734;9.112;2023-04-02T03:24:34;95905.53;;;6.78;83.05
9525;BME280;15940;48.734;9.112;2023-04-02T03:27:05;95907.72;;;6.80;83.19
9525;BME280;15940;48.734;9.112;2023-04-02T03:29:40;95911.63;;;6.79;83.68
9525;BME280;15940;48.734;9.112;2023-04-02T03:32:14;95902.34;;;6.80;83.92
9525;BME280;15940;48.734;9.112;2023-04-02T03:34:47;95906.00;;;6.77;83.44
9525;BME280;15940;48.734;9.112;2023-04-02T03:37:21;95904.53;;;6.76;83.47
9525;BME280;15940;48.734;9.112;2023-04-02T03:39:52;95920.69;;;6.76;83.52
9525;BME280;15940;48.734;9.112;2023-04-02T03:42:22;95918.75;;;6.82;84.14
9525;BME280;15940;48.734;9.112;2023-04-02T03:44:54;95919.53;;;6.82;82.92
9525;BME280;15940;48.734;9.112;2023-04-02T03:47:30;95932.50;;;6.84;84.03
9525;BME280;15940;48.734;9.112;2023-04-02T03:50:07;95923.19;;;6.85;83.67
9525;BME280;15940;48.734;9.112;2023-04-02T03:52:38;95933.66;;;6.77;82.86
9525;BME280;15940;48.734;9.112;2023-04-02T03:55:12;95933.44;;;6.81;83.57
9525;BME280;15940;48.734;9.112;2023-04-02T03:57:48;95944.91;;;6.76;83.45
9525;BME280;15940;48.734;9.112;2023-04-02T04:00:23;95942.69;;;6.74;83.34
9525;BME280;15940;48.734;9.112;2023-04-02T04:02:56;95941.22;;;6.73;83.35
9525;BME280;15940;48.734;9.112;2023-04-02T04:05:29;95944.66;;;6.74;83.50
9525;BME280;15940;48.734;9.112;2023-04-02T04:08:02;95942.69;;;6.74;83.53
9525;BME280;15940;48.734;9.112;2023-04-02T04:10:31;95949.75;;;6.72;83.54
9525;BME280;15940;48.734;9.112;2023-04-02T04:13:04;95945.84;;;6.73;83.60
9525;BME280;15940;48.734;9.112;2023-04-02T04:15:35;95957.34;;;6.73;83.14
9525;BME280;15940;48.734;9.112;2023-04-02T04:18:09;95953.16;;;6.72;84.18
9525;BME280;15940;48.734;9.112;2023-04-02T04:20:46;95954.66;;;6.73;83.53
9525;BME280;15940;48.734;9.112;2023-04-02T04:23:20;95956.66;;;6.78;83.95
9525;BME280;15940;48.734;9.112;2023-04-02T04:26:00;95956.63;;;6.73;83.97
9525;BME280;15940;48.734;9.112;2023-04-02T04:28:40;95965.69;;;6.75;84.34
9525;BME280;15940;48.734;9.112;2023-04-02T04:31:17;95969.16;;;6.81;83.44
9525;BME280;15940;48.734;9.112;2023-04-02T04:33:49;95972.31;;;6.80;83.96
9525;BME280;15940;48.734;9.112;2023-04-02T04:36:25;95974.25;;;6.74;83.59
9525;BME280;15940;48.734;9.112;2023-04-02T04:38:56;95971.81;;;6.76;84.15
9525;BME280;15940;48.734;9.112;2023-04-02T04:41:28;95984.06;;;6.77;83.76
9525;BME280;15940;48.734;9.112;2023-04-02T04:44:03;95988.22;;;6.78;83.92
9525;BME280;15940;48.734;9.112;2023-04-02T04:46:37;95983.78;;;6.75;82.94
9525;BME280;15940;48.734;9.112;2023-04-02T04:49:12;95992.88;;;6.77;84.04
9525;BME280;15940;48.734;9.112;2023-04-02T04:51:47;95991.97;;;6.86;84.00
9525;BME280;15940;48.734;9.112;2023-04-02T04:54:16;95996.63;;;6.85;84.10
9525;BME280;15940;48.734;9.112;2023-04-02T04:56:46;96002.00;;;6.85;82.95
9525;BME280;15940;48.734;9.112;2023-04-02T04:59:19;96006.38;;;6.83;82.56
9525;BME280;15940;48.734;9.112;2023-04-02T05:01:53;96003.88;;;6.79;82.86
9525;BME280;15940;48.734;9.112;2023-04-02T05:04:25;96000.19;;;6.77;83.27
9525;BME280;15940;48.734;9.112;2023-04-02T05:07:01;96008.13;;;6.86;83.32
9525;BME280;15940;48.734;9.112;2023-04-02T05:09:33;95998.09;;;6.86;83.63
9525;BME280;15940;48.734;9.112;2023-04-02T05:12:09;96007.88;;;6.84;83.02
9525;BME280;15940;48.734;9.112;2023-04-02T05:14:45;96002.47;;;6.84;83.48
9525;BME280;15940;48.734;9.112;2023-04-02T05:17:20;96008.13;;;6.86;83.87
9525;BME280;15940;48.734;9.112;2023-04-02T05:19:52;96009.09;;;6.83;83.71
9525;BME280;15940;48.734;9.112;2023-04-02T05:22:29;96020.09;;;6.85;84.06
9525;BME280;15940;48.734;9.112;2023-04-02T05:25:12;96014.00;;;6.84;83.99
9525;BME280;15940;48.734;9.112;2023-04-02T05:27:44;96019.13;;;6.82;83.41
9525;BME280;15940;48.734;9.112;2023-04-02T05:30:36;96022.31;;;6.86;84.13
9525;BME280;15940;48.734;9.112;2023-04-02T05:33:21;96028.69;;;6.89;83.76
9525;BME280;15940;48.734;9.112;2023-04-02T05:35:56;96029.50;;;6.95;83.92
9525;BME280;15940;48.734;9.112;2023-04-02T05:38:28;96034.16;;;6.95;83.56
9525;BME280;15940;48.734;9.112;2023-04-02T05:41:03;96033.47;;;7.00;83.26
9525;BME280;15940;48.734;9.112;2023-04-02T05:43:34;96033.19;;;6.98;83.41
9525;BME280;15940;48.734;9.112;2023-04-02T05:46:14;96033.94;;;6.98;83.81
9525;BME280;15940;48.734;9.112;2023-04-02T05:48:42;96030.97;;;6.96;82.72
9525;BME280;15940;48.734;9.112;2023-04-02T05:51:16;96036.69;;;7.04;83.08
9525;BME280;15940;48.734;9.112;2023-04-02T05:53:50;96046.91;;;7.00;83.17
9525;BME280;15940;48.734;9.112;2023-04-02T05:56:24;96047.19;;;7.02;83.70
9525;BME280;15940;48.734;9.112;2023-04-02T05:58:56;96055.13;;;7.11;83.23
9525;BME280;15940;48.734;9.112;2023-04-02T06:01:32;96052.44;;;7.11;83.53
9525;BME280;15940;48.734;9.112;2023-04-02T06:04:10;96058.13;;;7.19;82.50
9525;BME280;15940;48.734;9.112;2023-04-02T06:06:50;96055.22;;;7.22;82.78
9525;BME280;15940;48.734;9.112;2023-04-02T06:09:28;96055.97;;;7.23;82.92
9525;BME280;15940;48.734;9.112;2023-04-02T06:12:08;96066.75;;;7.23;82.32
9525;BME280;15940;48.734;9.112;2023-04-02T06:14:38;96069.47;;;7.28;81.96
9525;BME280;15940;48.734;9.112;2023-04-02T06:17:05;96069.69;;;7.25;81.56
9525;BME280;15940;48.734;9.112;2023-04-02T06:19:36;96077.50;;;7.23;81.81
9525;BME280;15940;48.734;9.112;2023-04-02T06:22:14;96078.00;;;7.21;82.08
9525;BME280;15940;48.734;9.112;2023-04-02T06:24:51;96089.34;;;7.31;82.38
9525;BME280;15940;48.734;9.112;2023-04-02T06:27:23;96093.28;;;7.35;82.19
9525;BME280;15940;48.734;9.112;2023-04-02T06:29:56;96095.56;;;7.42;81.99
9525;BME280;15940;48.734;9.112;2023-04-02T06:32:25;96086.84;;;7.53;81.89
9525;BME280;15940;48.734;9.112;2023-04-02T06:34:52;96089.28;;;7.51;82.10
9525;BME280;15940;48.734;9.112;2023-04-02T06:37:25;96094.72;;;7.57;81.26
9525;BME280;15940;48.734;9.112;2023-04-02T06:39:55;96097.47;;;7.62;81.55
9525;BME280;15940;48.734;9.112;2023-04-02T06:42:25;96095.75;;;7.65;80.95
9525;BME280;15940;48.734;9.112;2023-04-02T06:44:54;96108.31;;;7.68;80.62
9525;BME280;15940;48.734;9.112;2023-04-02T06:47:29;96110.78;;;7.71;80.75
9525;BME280;15940;48.734;9.112;2023-04-02T06:50:03;96105.16;;;7.75;80.88
9525;BME280;15940;48.734;9.112;2023-04-02T06:52:35;96109.59;;;7.78;80.93
9525;BME280;15940;48.734;9.112;2023-04-02T06:55:25;96110.84;;;7.83;80.73
9525;BME280;15940;48.734;9.112;2023-04-02T06:57:54;96119.75;;;7.89;80.60
9525;BME280;15940;48.734;9.112;2023-04-02T07:00:27;96127.16;;;7.99;80.26
9525;BME280;15940;48.734;9.112;2023-04-02T07:02:58;96140.00;;;8.10;79.38
9525;BME280;15940;48.734;9.112;2023-04-02T07:05:27;96145.69;;;8.18;79.60
9525;BME280;15940;48.734;9.112;2023-04-02T07:07:54;96145.47;;;8.21;79.17
9525;BME280;15940;48.734;9.112;2023-04-02T07:10:22;96144.28;;;8.28;79.31
9525;BME280;15940;48.734;9.112;2023-04-02T07:12:49;96150.69;;;8.30;78.39
9525;BME280;15940;48.734;9.112;2023-04-02T07:15:17;96159.59;;;8.37;78.62
9525;BME280;15940;48.734;9.112;2023-04-02T07:17:45;96151.41;;;8.31;77.75
9525;BME280;15940;48.734;9.112;2023-04-02T07:20:26;96169.56;;;8.30;78.01
9525;BME280;15940;48.734;9.112;2023-04-02T07:22:54;96177.50;;;8.40;78.55
9525;BME280;15940;48.734;9.112;2023-04-02T07:25:22;96173.66;;;8.52;78.26
9525;BME280;15940;48.734;9.112;2023-04-02T07:27:50;96173.50;;;8.67;77.27
9525;BME280;15940;48.734;9.112;2023-04-02T07:30:17;96191.91;;;8.63;76.89
9525;BME280;15940;48.734;9.112;2023-04-02T07:32:45;96178.16;;;8.66;76.54
9525;BME280;15940;48.734;9.112;2023-04-02T07:35:12;96196.31;;;8.66;76.83
9525;BME280;15940;48.734;9.112;2023-04-02T07:37:39;96194.13;;;8.64;77.33
9525;BME280;15940;48.734;9.112;2023-04-02T07:40:15;96199.22;;;8.62;76.91
9525;BME280;15940;48.734;9.112;2023-04-02T07:42:43;96201.00;;;8.65;77.21
9525;BME280;15940;48.734;9.112;2023-04-02T07:45:11;96201.00;;;8.71;76.92
9525;BME280;15940;48.734;9.112;2023-04-02T07:47:39;96201.78;;;8.77;76.65
9525;BME280;15940;48.734;9.112;2023-04-02T07:50:07;96202.81;;;8.85;76.54
9525;BME280;15940;48.734;9.112;2023-04-02T07:52:38;96201.84;;;8.88;75.77
9525;BME280;15940;48.734;9.112;2023-04-02T07:55:08;96211.22;;;8.98;75.96
9525;BME280;15940;48.734;9.112;2023-04-02T07:57:38;96211.50;;;9.00;75.45
9525;BME280;15940;48.734;9.112;2023-04-02T08:00:11;96213.50;;;9.11;75.28
9525;BME280;15940;48.734;9.112;2023-04-02T08:02:39;96224.31;;;9.11;75.38
9525;BME280;15940;48.734;9.112;2023-04-02T08:05:07;96226.78;;;9.14;74.93
9525;BME280;15940;48.734;9.112;2023-04-02T08:07:35;96227.56;;;9.21;75.10
9525;BME280;15940;48.734;9.112;2023-04-02T08:10:05;96235.19;;;9.28;74.58
9525;BME280;15940;48.734;9.112;2023-04-02T08:12:32;96231.53;;;9.31;74.77
9525;BME280;15940;48.734;9.112;2023-04-02T08:14:59;96231.56;;;9.42;73.55
9525;BME280;15940;48.734;9.112;2023-04-02T08:17:28;96240.41;;;9.42;74.50
9525;BME280;15940;48.734;9.112;2023-04-02T08:19:56;96237.75;;;9.48;73.55
9525;BME280;15940;48.734;9.112;2023-04-02T08:22:25;96232.59;;;9.56;73.39
9525;BME280;15940;48.734;9.112;2023-04-02T08:24:53;96244.91;;;9.62;73.09
9525;BME280;15940;48.734;9.112;2023-04-02T08:27:21;96251.81;;;9.69;72.74
9525;BME280;15940;48.734;9.112;2023-04-02T08:29:48;96250.59;;;9.70;72.70
9525;BME280;15940;48.734;9.112;2023-04-02T08:32:15;96249.59;;;9.67;73.03
9525;BME280;15940;48.734;9.112;2023-04-02T08:34:44;96255.00;;;9.67;72.00
9525;BME280;15940;48.734;9.112;2023-04-02T08:37:12;96269.53;;;9.70;72.67
9525;BME280;15940;48.734;9.112;2023-04-02T08:39:39;96266.25;;;9.49;72.11
9525;BME280;15940;48.734;9.112;2023-04-02T08:42:20;96268.19;;;9.43;72.79
9525;BME280;15940;48.734;9.112;2023-04-02T08:44:59;96272.13;;;9.42;72.70
9525;BME280;15940;48.734;9.112;2023-04-02T08:47:32;96277.06;;;9.49;73.12
9525;BME280;15940;48.734;9.112;2023-04-02T08:50:11;96273.34;;;9.47;72.45
9525;BME280;15940;48.734;9.112;2023-04-02T08:52:40;96278.00;;;9.40;73.46
9525;BME280;15940;48.734;9.112;2023-04-02T08:55:18;96284.16;;;9.47;73.73
9525;BME280;15940;48.734;9.112;2023-04-02T08:57:56;96285.22;;;9.60;73.28
9525;BME280;15940;48.734;9.112;2023-04-02T09:00:32;96284.75;;;9.73;72.88
9525;BME280;15940;48.734;9.112;2023-04-02T09:03:08;96293.84;;;9.76;72.63
9525;BME280;15940;48.734;9.112;2023-04-02T09:05:41;96294.41;;;9.91;72.90
9525;BME280;15940;48.734;9.112;2023-04-02T09:08:17;96287.31;;;9.99;72.35
9525;BME280;15940;48.734;9.112;2023-04-02T09:10:50;96294.69;;;9.98;70.64
9525;BME280;15940;48.734;9.112;2023-04-02T09:13:23;96300.84;;;10.05;71.74
9525;BME280;15940;48.734;9.112;2023-04-02T09:15:55;96309.72;;;10.11;71.44
9525;BME280;15940;48.734;9.112;2023-04-02T09:18:28;96306.00;;;10.14;71.90
9525;BME280;15940;48.734;9.112;2023-04-02T09:20:57;96303.81;;;10.12;70.09
9525;BME280;15940;48.734;9.112;2023-04-02T09:23:25;96310.22;;;10.20;71.28
9525;BME280;15940;48.734;9.112;2023-04-02T09:25:53;96309.78;;;10.33;71.05
9525;BME280;15940;48.734;9.112;2023-04-02T09:28:20;96321.59;;;10.36;70.13
9525;BME280;15940;48.734;9.112;2023-04-02T09:31:02;96319.13;;;10.38;71.03
9525;BME280;15940;48.734;9.112;2023-04-02T09:33:41;96323.28;;;10.22;71.41
9525;BME280;15940;48.734;9.112;2023-04-02T09:39:16;96337.66;;;9.80;73.40
9525;BME280;15940;48.734;9.112;2023-04-02T09:41:43;96347.22;;;9.69;73.81
9525;BME280;15940;48.734;9.112;2023-04-02T09:44:21;96351.00;;;9.46;73.90
9525;BME280;15940;48.734;9.112;2023-04-02T09:46:56;96351.00;;;9.40;74.67
9525;BME280;15940;48.734;9.112;2023-04-02T09:49:27;96355.19;;;9.47;74.83
9525;BME280;15940;48.734;9.112;2023-04-02T09:52:18;96356.22;;;9.50;74.43
9525;BME280;15940;48.734;9.112;2023-04-02T09:55:04;96353.50;;;9.50;74.79
9525;BME280;15940;48.734;9.112;2023-04-02T09:57:31;96367.28;;;9.52;74.85
9525;BME280;15940;48.734;9.112;2023-04-02T10:00:15;96365.75;;;9.45;74.99
9525;BME280;15940;48.734;9.112;2023-04-02T10:02:43;96366.97;;;9.44;74.96
9525;BME280;15940;48.734;9.112;2023-04-02T10:05:18;96378.78;;;9.47;75.84
9525;BME280;15940;48.734;9.112;2023-04-02T10:07:49;96375.09;;;9.44;75.31
9525;BME280;15940;48.734;9.112;2023-04-02T10:10:21;96375.81;;;9.39;75.46
9525;BME280;15940;48.734;9.112;2023-04-02T10:12:54;96387.13;;;9.43;75.95
9525;BME280;15940;48.734;9.112;2023-04-02T10:15:30;96378.31;;;9.48;76.15
9525;BME280;15940;48.734;9.112;2023-04-02T10:18:09;96384.19;;;9.47;75.79
9525;BME280;15940;48.734;9.112;2023-04-02T10:20:39;96387.63;;;9.47;75.56
9525;BME280;15940;48.734;9.112;2023-04-02T10:23:14;96382.28;;;9.53;75.26
9525;BME280;15940;48.734;9.112;2023-04-02T10:25:48;96382.22;;;9.41;75.33
9525;BME280;15940;48.734;9.112;2023-04-02T10:28:42;96396.22;;;9.40;76.41
9525;BME280;15940;48.734;9.112;2023-04-02T10:31:17;96396.66;;;9.33;76.19
9525;BME280;15940;48.734;9.112;2023-04-02T10:33:53;96401.09;;;9.36;75.44
9525;BME280;15940;48.734;9.112;2023-04-02T10:36:34;96396.41;;;9.31;76.29
9525;BME280;15940;48.734;9.112;2023-04-02T10:39:14;96412.38;;;9.34;75.72
9525;BME280;15940;48.734;9.112;2023-04-02T10:41:51;96403.28;;;9.37;75.32
9525;BME280;15940;48.734;9.112;2023-04-02T10:44:32;96408.44;;;9.35;75.68
9525;BME280;15940;48.734;9.112;2023-04-02T10:47:21;96417.31;;;9.36;75.03
9525;BME280;15940;48.734;9.112;2023-04-02T10:50:00;96425.66;;;9.38;75.74
9525;BME280;15940;48.734;9.112;2023-04-02T10:52:37;96418.56;;;9.40;75.17
9525;BME280;15940;48.734;9.112;2023-04-02T10:55:15;96419.13;;;9.50;75.60
9525;BME280;15940;48.734;9.112;2023-04-02T10:57:43;96421.19;;;9.66;75.52
9525;BME280;15940;48.734;9.112;2023-04-02T11:00:21;96424.66;;;9.67;74.97
9525;BME280;15940;48.734;9.112;2023-04-02T11:02:57;96420.44;;;9.66;74.67
9525;BME280;15940;48.734;9.112;2023-04-02T11:05:31;96426.88;;;9.74;74.81
9525;BME280;15940;48.734;9.112;2023-04-02T11:08:08;96432.09;;;9.83;74.59
9525;BME280;15940;48.734;9.112;2023-04-02T11:10:45;96438.03;;;9.87;73.86
9525;BME280;15940;48.734;9.112;2023-04-02T11:13:21;96441.97;;;9.86;73.65
9525;BME280;15940;48.734;9.112;2023-04-02T11:15:50;96447.63;;;9.94;74.13
9525;BME280;15940;48.734;9.112;2023-04-02T11:18:27;96444.94;;;9.94;72.85
9525;BME280;15940;48.734;9.112;2023-04-02T11:21:01;96441.97;;;9.92;73.22
9525;BME280;15940;48.734;9.112;2023-04-02T11:23:35;96447.69;;;9.99;73.10
9525;BME280;15940;48.734;9.112;2023-04-02T11:26:35;96448.91;;;10.04;71.84
9525;BME280;15940;48.734;9.112;2023-04-02T11:29:17;96451.66;;;10.10;72.55
9525;BME280;15940;48.734;9.112;2023-04-02T11:31:46;96462.59;;;10.26;72.33
9525;BME280;15940;48.734;9.112;2023-04-02T11:37:08;96461.66;;;10.41;71.21
9525;BME280;15940;48.734;9.112;2023-04-02T11:39:49;96460.16;;;10.40;70.78
9525;BME280;15940;48.734;9.112;2023-04-02T11:42:26;96467.59;;;10.50;70.71
9525;BME280;15940;48.734;9.112;2023-04-02T11:44:57;96463.94;;;10.59;70.25
9525;BME280;15940;48.734;9.112;2023-04-02T11:47:25;96462.00;;;10.71;70.41
9525;BME280;15940;48.734;9.112;2023-04-02T11:50:02;96466.69;;;10.87;69.94
9525;BME280;15940;48.734;9.112;2023-04-02T11:52:48;96468.44;;;10.90;69.31
9525;BME280;15940;48.734;9.112;2023-04-02T11:55:29;96464.97;;;10.84;67.91
9525;BME280;15940;48.734;9.112;2023-04-02T11:58:36;96469.69;;;10.95;66.95
9525;BME280;15940;48.734;9.112;2023-04-02T12:04:57;96468.22;;;11.22;66.43
9525;BME280;15940;48.734;9.112;2023-04-02T12:07:39;96467.25;;;11.41;67.25
9525;BME280;15940;48.734;9.112;2023-04-02T12:10:18;96476.13;;;11.42;65.81
9525;BME280;15940;48.734;9.112;2023-04-02T12:12:46;96481.03;;;11.55;65.98
9525;BME280;15940;48.734;9.112;2023-04-02T12:15:38;96480.78;;;11.64;66.13
9525;BME280;15940;48.734;9.112;2023-04-02T12:18:14;96484.50;;;11.66;65.37
9525;BME280;15940;48.734;9.112;2023-04-02T12:20:48;96486.97;;;11.53;65.43
9525;BME280;15940;48.734;9.112;2023-04-02T12:23:21;96491.88;;;11.55;66.91
9525;BME280;15940;48.734;9.112;2023-04-02T12:25:56;96487.47;;;11.80;66.00
9525;BME280;15940;48.734;9.112;2023-04-02T12:28:24;96490.13;;;11.74;65.01
9525;BME280;15940;48.734;9.112;2023-04-02T12:31:03;96490.91;;;11.86;66.04
9525;BME280;15940;48.734;9.112;2023-04-02T12:33:33;96490.41;;;11.76;64.27
9525;BME280;15940;48.734;9.112;2023-04-02T12:36:04;96500.75;;;11.78;63.82
9525;BME280;15940;48.734;9.112;2023-04-02T12:38:43;96495.06;;;11.98;65.12
9525;BME280;15940;48.734;9.112;2023-04-02T12:41:22;96492.84;;;12.02;62.16
9525;BME280;15940;48.734;9.112;2023-04-02T12:43:59;96506.88;;;12.23;62.20
9525;BME280;15940;48.734;9.112;2023-04-02T12:46:29;96504.81;;;12.51;61.79
9525;BME280;15940;48.734;9.112;2023-04-02T12:49:03;96511.66;;;12.64;61.44
9525;BME280;15940;48.734;9.112;2023-04-02T12:51:31;96505.03;;;12.53;60.42
9525;BME280;15940;48.734;9.112;2023-04-02T12:53:58;96510.16;;;12.68;60.61
9525;BME280;15940;48.734;9.112;2023-04-02T12:56:25;96504.75;;;12.63;58.64
9525;BME280;15940;48.734;9.112;2023-04-02T12:58:55;96510.69;;;12.61;60.35
9525;BME280;15940;48.734;9.112;2023-04-02T13:01:24;96508.50;;;12.48;60.56
9525;BME280;15940;48.734;9.112;2023-04-02T13:04:03;96509.28;;;12.43;61.38
9525;BME280;15940;48.734;9.112;2023-04-02T13:06:31;96516.50;;;12.24;60.54
9525;BME280;15940;48.734;9.112;2023-04-02T13:09:00;96510.53;;;12.31;61.98
9525;BME280;15940;48.734;9.112;2023-04-02T13:11:35;96521.66;;;12.27;60.80
9525;BME280;15940;48.734;9.112;2023-04-02T13:14:04;96514.06;;;12.09;63.30
9525;BME280;15940;48.734;9.112;2023-04-02T13:16:34;96516.28;;;12.05;63.40
9525;BME280;15940;48.734;9.112;2023-04-02T13:19:26;96521.75;;;11.83;63.04
9525;BME280;15940;48.734;9.112;2023-04-02T13:21:55;96523.47;;;11.80;62.58
9525;BME280;15940;48.734;9.112;2023-04-02T13:24:24;96518.78;;;11.69;63.76
9525;BME280;15940;48.734;9.112;2023-04-02T13:26:54;96525.66;;;11.37;65.01
9525;BME280;15940;48.734;9.112;2023-04-02T13:29:28;96524.19;;;11.30;66.63
9525;BME280;15940;48.734;9.112;2023-04-02T13:31:58;96524.13;;;11.08;66.95
9525;BME280;15940;48.734;9.112;2023-04-02T13:34:27;96533.00;;;10.92;67.05
9525;BME280;15940;48.734;9.112;2023-04-02T13:36:54;96538.63;;;10.82;68.81
9525;BME280;15940;48.734;9.112;2023-04-02T13:39:22;96531.66;;;10.65;69.71
9525;BME280;15940;48.734;9.112;2023-04-02T13:41:51;96538.28;;;10.52;69.43
9525;BME280;15940;48.734;9.112;2023-04-02T13:44:23;96536.22;;;10.42;70.85
9525;BME280;15940;48.734;9.112;2023-04-02T13:46:52;96543.13;;;10.37;72.38
9525;BME280;15940;48.734;9.112;2023-04-02T13:49:20;96551.66;;;10.24;73.16
9525;BME280;15940;48.734;9.112;2023-04-02T13:51:49;96549.75;;;9.99;74.47
9525;BME280;15940;48.734;9.112;2023-04-02T13:54:22;96552.13;;;9.86;75.45
9525;BME280;15940;48.734;9.112;2023-04-02T13:56:50;96551.03;;;9.72;76.35
9525;BME280;15940;48.734;9.112;2023-04-02T13:59:17;96555.38;;;9.58;76.78
9525;BME280;15940;48.734;9.112;2023-04-02T14:01:46;96558.97;;;9.50;77.43
9525;BME280;15940;48.734;9.112;2023-04-02T14:04:17;96562.84;;;9.43;77.95